Nearby METAR Reports

 

EGTE - Exeter Airport, United Kingdom
Distance from station: S 19km
Updated: 25/11/2020 14:50
NOT Current
Few Clouds
Few Clouds
 Wind from NW
Wind: NW 20 km/h
Temperature: 10°C
Wind Chill: 7°C
Dew Point: 3°C
Humidity: 62%
Barometer: 1014 hPa
Clouds: Few Clouds
Visibility: 10 km
Cloud details: Few Clouds 518 m
2020/11/25 14:50 EGTE 251450Z 31011KT 9999 FEW017 10/03 Q1014
EGDY - Yeovilton (navy), United Kingdom
Distance from station: ENE 55km
Updated: 25/11/2020 21:50
Fog, Clear
Fog, Clear
 Wind from W
Wind: W 2 km/h
Temperature: 1°C
Dew Point: 0°C
Humidity: 93%
Barometer: 1019 hPa
Summary: Fog
Clouds: Clear
Visibility: 1 km
2020/11/25 21:50 EGDY 252150Z AUTO 26001KT 0500 FG NCD 01/00 Q1019
 
EGFF - Cardiff-Wales Ar, United Kingdom
Distance from station: N 56km
Updated: 25/11/2020 21:50
Clear
Clear
 Wind from N
Wind: N 9 km/h
Temperature: 3°C
Wind Chill: 0°C
Dew Point: 3°C
Humidity: 100%
Barometer: 1020 hPa
Clouds: Clear
Visibility: 10 km
2020/11/25 21:50 EGFF 252150Z AUTO 01005KT 9999 NCD 03/03 Q1020
EGDX - St Athan Raf, United Kingdom
Distance from station: N 58km
Updated: 01/04/2019 13:50
NOT Current
Clear
Clear
 Wind from E
Wind: E 15 km/h
Temperature: 11°C
Dew Point: 5°C
Humidity: 67%
Barometer: 1019 hPa
Clouds: Clear
Visibility: 10 km
2019/04/01 12:50 EGDX 011250Z AUTO 10008KT 9999 NCD 11/05 Q1019
 
EGGD - Bristol/Lulsgate, United Kingdom
Distance from station: NE 71km
Updated: 25/11/2020 21:50
Clear
Clear
 Wind from NNW
Wind: NNW 6 km/h
Temperature: 5°C
Dew Point: 3°C
Humidity: 87%
Barometer: 1019 hPa
Clouds: Clear
Visibility: 10 km
2020/11/25 21:50 EGGD 252150Z AUTO 34003KT 9999 NCD 05/03 Q1019